ADDS METAR Data INFO
IDs: Format: Raw Decoded Include TAF

Data at: 0428 UTC 21 Nov 2017

KEAN 210413Z AUTO 23015G29KT 10SM OVC110 12/M07 A2983 RMK AO2
KEAN 210353Z AUTO 21020G30KT 10SM OVC110 12/M07 A2982 RMK AO2
KEAN 210333Z AUTO 23020G34KT 10SM OVC110 12/M07 A2983 RMK AO2
KEAN 210313Z AUTO 23025G36KT 10SM OVC110 12/M07 A2982 RMK AO2
KEAN 210253Z AUTO 23028G42KT 10SM OVC110 13/M07 A2981 RMK AO2
KEAN 210233Z AUTO 24019G39KT 10SM OVC100 13/M07 A2981 RMK AO2
KEAN 210213Z AUTO 23018G31KT 10SM OVC100 12/M07 A2982 RMK AO2
KEAN 210155Z AUTO 22020G35KT 10SM OVC100 12/M07 A2983 RMK AO2
KEAN 210133Z AUTO 22023G39KT 10SM OVC110 12/M08 A2982 RMK AO2
KEAN 210113Z AUTO 22018G30KT 10SM OVC110 12/M08 A2981 RMK AO2
KEAN 210054Z AUTO 22012G19KT 10SM OVC110 12/M09 A2981 RMK AO2
KEAN 210034Z AUTO 19013G27KT 10SM BKN110 12/M09 A2982 RMK AO2
KEAN 210014Z AUTO 22023G31KT 10SM SCT120 13/M10 A2981 RMK AO2
KEAN 202354Z AUTO 23019G30KT 10SM CLR 12/M11 A2981 RMK AO2
KEAN 202334Z AUTO 23018G28KT 10SM CLR 12/M11 A2982 RMK AO2
KEAN 202314Z AUTO 23021G31KT 10SM CLR 12/M11 A2982 RMK AO2
KEAN 202254Z AUTO 22015G26KT 10SM CLR 12/M11 A2982 RMK AO2
KEAN 202234Z AUTO 22020G30KT 10SM CLR 12/M11 A2981 RMK AO2
KEAN 202214Z AUTO 22018G32KT 10SM CLR 12/M11 A2980 RMK AO2
KEAN 202154Z AUTO 22018G28KT 10SM CLR 12/M11 A2979 RMK AO2
KEAN 202134Z AUTO 22017G37KT 10SM CLR 12/M11 A2978 RMK AO2
KEAN 202114Z AUTO 22022G36KT 10SM CLR 12/M12 A2979 RMK AO2
KEAN 202054Z AUTO 23018G37KT 10SM CLR 13/M12 A2980 RMK AO2
KEAN 202034Z AUTO 23022G35KT 10SM CLR 13/M12 A2980 RMK AO2
KEAN 202014Z AUTO 23025G37KT 10SM CLR 13/M13 A2979 RMK AO2
KEAN 201954Z AUTO 23026G36KT 10SM CLR 13/M12 A2978 RMK AO2
KEAN 201933Z AUTO 23027G39KT 10SM CLR 13/M12 A2978 RMK AO2
KEAN 201913Z AUTO 22029G40KT 10SM CLR 13/M13 A2977 RMK AO2
KEAN 201853Z AUTO 23031G47KT 10SM CLR 13/M13 A2977 RMK AO2
KEAN 201834Z AUTO 22031G41KT 10SM CLR 13/M13 A2976 RMK AO2
KEAN 201813Z AUTO 23024G46KT 10SM CLR 13/M14 A2976 RMK AO2
KEAN 201754Z AUTO 23022G32KT 10SM CLR 13/M14 A2976 RMK AO2
KEAN 201734Z AUTO 23026G38KT 10SM CLR 12/M14 A2976 RMK AO2
KEAN 201715Z AUTO 24019G36KT 10SM CLR 13/M14 A2977 RMK AO2
KEAN 201654Z AUTO 23020G31KT 10SM CLR 13/M16 A2977 RMK AO2
KEAN 201633Z AUTO 22020G34KT 10SM CLR 13/M16 A2977 RMK AO2
KEAN 201613Z AUTO 21023G34KT 10SM CLR 13/M16 A2978 RMK AO2
KEAN 201553Z AUTO 22012G20KT 10SM CLR 12/M17 A2978 RMK AO2
KEAN 201533Z AUTO 24012G26KT 10SM SCT110 13/M17 A2980 RMK AO2
KEAN 201514Z AUTO 20017G31KT 10SM BKN110 13/M17 A2980 RMK AO2
KEAN 201454Z AUTO 21017G32KT 10SM BKN110 12/M17 A2980 RMK AO2
KEAN 201434Z AUTO 21027G35KT 10SM OVC110 12/M18 A2977 RMK AO2
KEAN 201414Z AUTO 23021G32KT 10SM BKN110 12/M18 A2976 RMK AO2
KEAN 201353Z AUTO 23014G22KT 10SM BKN110 12/M18 A2976 RMK AO2
KEAN 201333Z AUTO 25011G19KT 10SM BKN110 11/M18 A2978 RMK AO2
KEAN 201314Z AUTO 24016G27KT 10SM OVC110 11/M17 A2977 RMK AO2
KEAN 201253Z AUTO 25014G22KT 10SM OVC110 11/M17 A2978 RMK AO2
KEAN 201234Z AUTO 24023G30KT 10SM OVC100 11/M17 A2978 RMK AO2
KEAN 201214Z AUTO 24017G32KT 10SM OVC100 11/M17 A2978 RMK AO2
KEAN 201153Z AUTO 23033G45KT 10SM BKN100 BKN120 12/M17 A2975 RMK AO2
KEAN 201134Z AUTO 25023G32KT 10SM SCT100 11/M17 A2975 RMK AO2
KEAN 201115Z AUTO 24016G29KT 10SM SCT100 09/M16 A2977 RMK AO2
KEAN 201054Z AUTO 23023G35KT 10SM SCT095 10/M16 A2978 RMK AO2
KEAN 201034Z AUTO 22023G30KT 10SM CLR 09/M14 A2977 RMK AO2
KEAN 201017Z AUTO 22024G37KT 10SM CLR 09/M14 A2977 RMK AO2
KEAN 200954Z AUTO 22026G36KT 10SM CLR 09/M16 A2977 RMK AO2
KEAN 200935Z AUTO 22026G39KT 10SM CLR 09/M16 A2976 RMK AO2
KEAN 200855Z AUTO 22026G39KT 10SM CLR 10/M17 A2978 RMK AO2
KEAN 200834Z AUTO 21025G32KT 10SM CLR 08/M14 A2980 RMK AO2
KEAN 200814Z AUTO 21016G32KT 10SM CLR 09/M16 A2980 RMK AO2
KEAN 200754Z AUTO 22019G28KT 10SM CLR 08/M14 A2980 RMK AO2
KEAN 200735Z AUTO 21011G22KT 10SM CLR 08/M14 A2982 RMK AO2
KEAN 200714Z AUTO 19013G25KT 10SM CLR 07/M13 A2984 RMK AO2
KEAN 200654Z AUTO 22013G24KT 10SM CLR 07/M13 A2984 RMK AO2
KEAN 200634Z AUTO 20018G24KT 10SM CLR 07/M13 A2984 RMK AO2
KEAN 200615Z AUTO 21014G23KT 10SM CLR 06/M13 A2984 RMK AO2
KEAN 200555Z AUTO 22014G25KT 10SM CLR 07/M13 A2984 RMK AO2
KEAN 200534Z AUTO 22017G24KT 10SM CLR 07/M14 A2984 RMK AO2
KEAN 200514Z AUTO 22016G24KT 10SM CLR 07/M14 A2984 RMK AO2
KEAN 200454Z AUTO 23017G28KT 10SM CLR 07/M14 A2984 RMK AO2
KEAN 200435Z AUTO 24022G31KT 10SM CLR 08/M14 A2985 RMK AO2
KEAN 200415Z AUTO 24017G31KT 10SM CLR 07/M14 A2986 RMK AO2
KEAN 200354Z AUTO 24017G30KT 10SM CLR 07/M14 A2987 RMK AO2
KEAN 200334Z AUTO 23016G25KT 10SM CLR 07/M14 A2986 RMK AO2
KEAN 200314Z AUTO 23016G29KT 10SM CLR 08/M14 A2985 RMK AO2
KEAN 200254Z AUTO 24020G36KT 10SM CLR 08/M14 A2986 RMK AO2
KEAN 200234Z AUTO 24024G37KT 10SM CLR 08/M16 A2985 RMK AO2
KEAN 200216Z AUTO 24019G31KT 10SM CLR 08/M16 A2985 RMK AO2
KEAN 200154Z AUTO 24016G33KT 10SM CLR 08/M17 A2986 RMK AO2
KEAN 200134Z AUTO 24019G33KT 10SM CLR 08/M17 A2984 RMK AO2
KEAN 200114Z AUTO 24022G38KT 10SM CLR 08/M16 A2984 RMK AO2
KEAN 200054Z AUTO 24020G34KT 10SM CLR 08/M16 A2985 RMK AO2
KEAN 200036Z AUTO 23020G30KT 10SM CLR 08/M16 A2986 RMK AO2
KEAN 200014Z AUTO 23015G23KT 10SM CLR 08/M16 A2987 RMK AO2
KEAN 192354Z AUTO 23013G23KT 10SM CLR 08/M16 A2987 RMK AO2
KEAN 192334Z AUTO 22023G30KT 10SM CLR 09/M17 A2987 RMK AO2
KEAN 192314Z AUTO 22018G33KT 10SM CLR 10/M17 A2987 RMK AO2
KEAN 192254Z AUTO 22024G33KT 10SM CLR 11/M17 A2989 RMK AO2
KEAN 192234Z AUTO 25012G25KT 10SM CLR 11/M17 A2991 RMK AO2
KEAN 192154Z AUTO 21016G31KT 10SM CLR 10/M17 A2993 RMK AO2
KEAN 192135Z AUTO 21020G32KT 10SM CLR 11/M18 A2991 RMK AO2
KEAN 192116Z AUTO 23017G30KT 10SM CLR 10/M16 A2993 RMK AO2
KEAN 192054Z AUTO 23015G27KT 10SM CLR 10/M16 A2994 RMK AO2
KEAN 192034Z AUTO 22011G19KT 10SM CLR 09/M15 A2996 RMK AO2
KEAN 192015Z AUTO 22007G21KT 10SM CLR 09/M14 A2997 RMK AO2
KEAN 191955Z AUTO 24016G31KT 10SM CLR 09/M16 A2999 RMK AO2
KEAN 191935Z AUTO 22014G24KT 10SM CLR 10/M16 A3000 RMK AO2
KEAN 191914Z AUTO 21015G26KT 10SM CLR 10/M16 A3000 RMK AO2
KEAN 191854Z AUTO 22017G24KT 10SM CLR 12/M15 A3000 RMK AO2
KEAN 191834Z AUTO 22012G18KT 10SM CLR 10/M15 A3003 RMK AO2
KEAN 191814Z AUTO 16012G17KT 10SM CLR 08/M14 A3005 RMK AO2
KEAN 191755Z AUTO 17014KT 10SM CLR 08/M13 A3006 RMK AO2
KEAN 191734Z AUTO 19016G25KT 10SM CLR 08/M14 A3006 RMK AO2
KEAN 191715Z AUTO 21019G29KT 10SM CLR 09/M14 A3006 RMK AO2
KEAN 191654Z AUTO 22018G27KT 10SM CLR 08/M13 A3006 RMK AO2
KEAN 191634Z AUTO 21012G25KT 10SM CLR 07/M13 A3007 RMK AO2